sensor_id;sensor_type;location;lat;lon;timestamp;P1;durP1;ratioP1;P2;durP2;ratioP2
23472;SDS011;11909;52.516;13.564;2023-03-01T00:01:10;15.00;;;9.27;;
23472;SDS011;11909;52.516;13.564;2023-03-01T00:03:39;18.75;;;10.65;;
23472;SDS011;11909;52.516;13.564;2023-03-01T00:06:08;16.75;;;9.90;;
23472;SDS011;11909;52.516;13.564;2023-03-01T00:08:36;14.60;;;9.95;;
23472;SDS011;11909;52.516;13.564;2023-03-01T00:11:05;17.05;;;9.68;;
23472;SDS011;11909;52.516;13.564;2023-03-01T00:13:34;12.10;;;7.43;;
23472;SDS011;11909;52.516;13.564;2023-03-01T00:16:02;18.30;;;9.75;;
23472;SDS011;11909;52.516;13.564;2023-03-01T00:18:31;15.13;;;8.93;;
23472;SDS011;11909;52.516;13.564;2023-03-01T00:20:59;15.75;;;9.20;;
23472;SDS011;11909;52.516;13.564;2023-03-01T00:23:28;14.98;;;9.40;;
23472;SDS011;11909;52.516;13.564;2023-03-01T00:25:56;14.68;;;9.88;;
23472;SDS011;11909;52.516;13.564;2023-03-01T00:28:24;19.58;;;9.57;;
23472;SDS011;11909;52.516;13.564;2023-03-01T00:30:52;15.48;;;9.82;;
23472;SDS011;11909;52.516;13.564;2023-03-01T00:33:19;15.02;;;8.65;;
23472;SDS011;11909;52.516;13.564;2023-03-01T00:35:47;16.05;;;10.02;;
23472;SDS011;11909;52.516;13.564;2023-03-01T00:38:15;16.05;;;9.27;;
23472;SDS011;11909;52.516;13.564;2023-03-01T00:40:44;16.52;;;9.40;;
23472;SDS011;11909;52.516;13.564;2023-03-01T00:43:12;16.02;;;9.40;;
23472;SDS011;11909;52.516;13.564;2023-03-01T00:45:39;19.10;;;9.15;;
23472;SDS011;11909;52.516;13.564;2023-03-01T00:48:07;17.42;;;8.73;;
23472;SDS011;11909;52.516;13.564;2023-03-01T00:50:35;14.00;;;8.55;;
23472;SDS011;11909;52.516;13.564;2023-03-01T00:53:02;17.33;;;8.68;;
23472;SDS011;11909;52.516;13.564;2023-03-01T00:55:31;16.25;;;9.40;;
23472;SDS011;11909;52.516;13.564;2023-03-01T00:58:00;15.63;;;8.63;;
23472;SDS011;11909;52.516;13.564;2023-03-01T01:00:27;13.32;;;8.77;;
23472;SDS011;11909;52.516;13.564;2023-03-01T01:02:55;14.15;;;7.97;;
23472;SDS011;11909;52.516;13.564;2023-03-01T01:05:23;14.07;;;8.85;;
23472;SDS011;11909;52.516;13.564;2023-03-01T01:07:50;15.05;;;9.23;;
23472;SDS011;11909;52.516;13.564;2023-03-01T01:10:18;13.93;;;8.63;;
23472;SDS011;11909;52.516;13.564;2023-03-01T01:12:46;15.00;;;9.18;;
23472;SDS011;11909;52.516;13.564;2023-03-01T01:15:15;15.88;;;9.40;;
23472;SDS011;11909;52.516;13.564;2023-03-01T01:17:43;16.58;;;9.55;;
23472;SDS011;11909;52.516;13.564;2023-03-01T01:20:11;14.45;;;8.95;;
23472;SDS011;11909;52.516;13.564;2023-03-01T01:22:39;15.05;;;8.98;;
23472;SDS011;11909;52.516;13.564;2023-03-01T01:25:07;13.82;;;8.80;;
23472;SDS011;11909;52.516;13.564;2023-03-01T01:27:35;14.65;;;9.20;;
23472;SDS011;11909;52.516;13.564;2023-03-01T01:30:04;16.35;;;9.50;;
23472;SDS011;11909;52.516;13.564;2023-03-01T01:32:33;14.57;;;9.10;;
23472;SDS011;11909;52.516;13.564;2023-03-01T01:35:01;14.50;;;9.32;;
23472;SDS011;11909;52.516;13.564;2023-03-01T01:37:29;13.75;;;8.88;;
23472;SDS011;11909;52.516;13.564;2023-03-01T01:39:58;13.65;;;8.30;;
23472;SDS011;11909;52.516;13.564;2023-03-01T01:42:26;13.55;;;9.00;;
23472;SDS011;11909;52.516;13.564;2023-03-01T01:47:56;14.30;;;8.80;;
23472;SDS011;11909;52.516;13.564;2023-03-01T01:50:26;18.70;;;8.95;;
23472;SDS011;11909;52.516;13.564;2023-03-01T01:53:05;17.00;;;9.25;;
23472;SDS011;11909;52.516;13.564;2023-03-01T01:55:37;15.52;;;9.30;;
23472;SDS011;11909;52.516;13.564;2023-03-01T01:58:09;15.02;;;9.40;;
23472;SDS011;11909;52.516;13.564;2023-03-01T02:00:40;16.45;;;10.18;;
23472;SDS011;11909;52.516;13.564;2023-03-01T02:03:10;14.90;;;9.73;;
23472;SDS011;11909;52.516;13.564;2023-03-01T02:05:42;15.95;;;9.23;;
23472;SDS011;11909;52.516;13.564;2023-03-01T02:08:21;13.73;;;9.23;;
23472;SDS011;11909;52.516;13.564;2023-03-01T02:10:52;15.07;;;9.52;;
23472;SDS011;11909;52.516;13.564;2023-03-01T02:13:23;15.27;;;9.02;;
23472;SDS011;11909;52.516;13.564;2023-03-01T02:15:50;17.63;;;9.15;;
23472;SDS011;11909;52.516;13.564;2023-03-01T02:18:21;15.00;;;9.45;;
23472;SDS011;11909;52.516;13.564;2023-03-01T02:20:54;18.52;;;9.43;;
23472;SDS011;11909;52.516;13.564;2023-03-01T02:23:33;16.63;;;9.75;;
23472;SDS011;11909;52.516;13.564;2023-03-01T02:26:04;18.98;;;9.50;;
23472;SDS011;11909;52.516;13.564;2023-03-01T02:28:37;16.40;;;9.80;;
23472;SDS011;11909;52.516;13.564;2023-03-01T02:31:07;16.15;;;9.25;;
23472;SDS011;11909;52.516;13.564;2023-03-01T02:34:03;16.10;;;9.93;;
23472;SDS011;11909;52.516;13.564;2023-03-01T02:36:34;14.63;;;9.32;;
23472;SDS011;11909;52.516;13.564;2023-03-01T02:39:05;15.18;;;9.38;;
23472;SDS011;11909;52.516;13.564;2023-03-01T02:41:41;13.80;;;8.68;;
23472;SDS011;11909;52.516;13.564;2023-03-01T02:44:14;17.15;;;9.07;;
23472;SDS011;11909;52.516;13.564;2023-03-01T02:46:44;13.65;;;9.32;;
23472;SDS011;11909;52.516;13.564;2023-03-01T02:49:24;16.23;;;9.20;;
23472;SDS011;11909;52.516;13.564;2023-03-01T02:52:01;16.40;;;9.77;;
23472;SDS011;11909;52.516;13.564;2023-03-01T02:54:50;14.25;;;8.77;;
23472;SDS011;11909;52.516;13.564;2023-03-01T02:57:23;14.18;;;8.50;;
23472;SDS011;11909;52.516;13.564;2023-03-01T03:02:24;14.73;;;9.27;;
23472;SDS011;11909;52.516;13.564;2023-03-01T03:05:04;13.27;;;9.32;;
23472;SDS011;11909;52.516;13.564;2023-03-01T03:07:34;16.25;;;9.48;;
23472;SDS011;11909;52.516;13.564;2023-03-01T03:10:04;15.00;;;9.80;;
23472;SDS011;11909;52.516;13.564;2023-03-01T03:15:03;16.00;;;9.23;;
23472;SDS011;11909;52.516;13.564;2023-03-01T03:17:35;16.77;;;10.05;;
23472;SDS011;11909;52.516;13.564;2023-03-01T03:20:03;16.17;;;9.85;;
23472;SDS011;11909;52.516;13.564;2023-03-01T03:22:37;18.52;;;9.63;;
23472;SDS011;11909;52.516;13.564;2023-03-01T03:25:06;22.52;;;9.48;;
23472;SDS011;11909;52.516;13.564;2023-03-01T03:27:36;16.02;;;9.50;;
23472;SDS011;11909;52.516;13.564;2023-03-01T03:30:08;14.25;;;9.82;;
23472;SDS011;11909;52.516;13.564;2023-03-01T03:32:38;18.15;;;9.77;;
23472;SDS011;11909;52.516;13.564;2023-03-01T03:35:07;15.60;;;9.40;;
23472;SDS011;11909;52.516;13.564;2023-03-01T03:37:36;15.80;;;9.00;;
23472;SDS011;11909;52.516;13.564;2023-03-01T03:40:34;14.23;;;8.57;;
23472;SDS011;11909;52.516;13.564;2023-03-01T03:43:03;18.58;;;9.10;;
23472;SDS011;11909;52.516;13.564;2023-03-01T03:45:35;15.20;;;9.45;;
23472;SDS011;11909;52.516;13.564;2023-03-01T03:48:04;18.45;;;10.07;;
23472;SDS011;11909;52.516;13.564;2023-03-01T03:50:33;18.95;;;10.52;;
23472;SDS011;11909;52.516;13.564;2023-03-01T03:53:01;19.20;;;10.20;;
23472;SDS011;11909;52.516;13.564;2023-03-01T03:58:00;18.42;;;10.35;;
23472;SDS011;11909;52.516;13.564;2023-03-01T04:00:34;18.90;;;10.40;;
23472;SDS011;11909;52.516;13.564;2023-03-01T04:03:04;19.58;;;9.95;;
23472;SDS011;11909;52.516;13.564;2023-03-01T04:05:32;14.73;;;9.07;;
23472;SDS011;11909;52.516;13.564;2023-03-01T04:08:00;22.67;;;10.05;;
23472;SDS011;11909;52.516;13.564;2023-03-01T04:10:34;15.93;;;9.50;;
23472;SDS011;11909;52.516;13.564;2023-03-01T04:13:03;20.27;;;11.18;;
23472;SDS011;11909;52.516;13.564;2023-03-01T04:15:31;19.30;;;10.95;;
23472;SDS011;11909;52.516;13.564;2023-03-01T04:18:01;19.77;;;11.45;;
23472;SDS011;11909;52.516;13.564;2023-03-01T04:20:29;21.80;;;11.33;;
23472;SDS011;11909;52.516;13.564;2023-03-01T04:23:00;19.60;;;11.77;;
23472;SDS011;11909;52.516;13.564;2023-03-01T04:25:37;24.23;;;11.95;;
23472;SDS011;11909;52.516;13.564;2023-03-01T04:28:06;22.13;;;12.13;;
23472;SDS011;11909;52.516;13.564;2023-03-01T04:30:34;20.25;;;11.85;;
23472;SDS011;11909;52.516;13.564;2023-03-01T04:33:05;18.85;;;10.77;;
23472;SDS011;11909;52.516;13.564;2023-03-01T04:35:34;20.58;;;11.13;;
23472;SDS011;11909;52.516;13.564;2023-03-01T04:38:03;17.00;;;10.25;;
23472;SDS011;11909;52.516;13.564;2023-03-01T04:40:32;18.08;;;9.90;;
23472;SDS011;11909;52.516;13.564;2023-03-01T04:43:00;19.52;;;9.80;;
23472;SDS011;11909;52.516;13.564;2023-03-01T04:45:28;17.98;;;10.05;;
23472;SDS011;11909;52.516;13.564;2023-03-01T04:47:56;14.60;;;9.43;;
23472;SDS011;11909;52.516;13.564;2023-03-01T04:50:26;17.30;;;10.27;;
23472;SDS011;11909;52.516;13.564;2023-03-01T04:52:53;17.40;;;9.85;;
23472;SDS011;11909;52.516;13.564;2023-03-01T04:55:25;15.75;;;9.68;;
23472;SDS011;11909;52.516;13.564;2023-03-01T04:57:53;20.05;;;11.50;;
23472;SDS011;11909;52.516;13.564;2023-03-01T05:00:22;19.77;;;11.18;;
23472;SDS011;11909;52.516;13.564;2023-03-01T05:02:50;18.40;;;10.73;;
23472;SDS011;11909;52.516;13.564;2023-03-01T05:05:20;17.88;;;11.00;;
23472;SDS011;11909;52.516;13.564;2023-03-01T05:07:53;20.88;;;10.77;;
23472;SDS011;11909;52.516;13.564;2023-03-01T05:10:23;19.10;;;11.10;;
23472;SDS011;11909;52.516;13.564;2023-03-01T05:12:52;20.67;;;12.18;;
23472;SDS011;11909;52.516;13.564;2023-03-01T05:15:19;21.05;;;11.70;;
23472;SDS011;11909;52.516;13.564;2023-03-01T05:17:51;19.25;;;11.32;;
23472;SDS011;11909;52.516;13.564;2023-03-01T05:20:20;19.60;;;10.95;;
23472;SDS011;11909;52.516;13.564;2023-03-01T05:22:49;21.00;;;12.18;;
23472;SDS011;11909;52.516;13.564;2023-03-01T05:25:19;22.40;;;12.65;;
23472;SDS011;11909;52.516;13.564;2023-03-01T05:27:47;23.25;;;11.82;;
23472;SDS011;11909;52.516;13.564;2023-03-01T05:30:15;18.95;;;11.75;;
23472;SDS011;11909;52.516;13.564;2023-03-01T05:32:44;20.58;;;11.82;;
23472;SDS011;11909;52.516;13.564;2023-03-01T05:35:14;17.10;;;10.75;;
23472;SDS011;11909;52.516;13.564;2023-03-01T05:37:43;17.50;;;10.38;;
23472;SDS011;11909;52.516;13.564;2023-03-01T05:40:13;18.88;;;11.18;;
23472;SDS011;11909;52.516;13.564;2023-03-01T05:45:12;23.70;;;11.93;;
23472;SDS011;11909;52.516;13.564;2023-03-01T05:47:40;20.63;;;11.88;;
23472;SDS011;11909;52.516;13.564;2023-03-01T05:50:11;20.75;;;12.10;;
23472;SDS011;11909;52.516;13.564;2023-03-01T05:52:40;17.02;;;10.80;;
23472;SDS011;11909;52.516;13.564;2023-03-01T05:55:08;19.13;;;11.13;;
23472;SDS011;11909;52.516;13.564;2023-03-01T05:57:36;19.25;;;11.13;;
23472;SDS011;11909;52.516;13.564;2023-03-01T06:00:09;23.75;;;13.43;;
23472;SDS011;11909;52.516;13.564;2023-03-01T06:02:38;23.58;;;12.45;;
23472;SDS011;11909;52.516;13.564;2023-03-01T06:05:06;24.90;;;12.60;;
23472;SDS011;11909;52.516;13.564;2023-03-01T06:07:36;22.90;;;12.57;;
23472;SDS011;11909;52.516;13.564;2023-03-01T06:10:04;24.25;;;12.85;;
23472;SDS011;11909;52.516;13.564;2023-03-01T06:12:34;20.75;;;12.55;;
23472;SDS011;11909;52.516;13.564;2023-03-01T06:15:06;19.02;;;11.80;;
23472;SDS011;11909;52.516;13.564;2023-03-01T06:17:37;21.75;;;11.43;;
23472;SDS011;11909;52.516;13.564;2023-03-01T06:20:07;21.95;;;12.23;;
23472;SDS011;11909;52.516;13.564;2023-03-01T06:22:37;29.85;;;13.15;;
23472;SDS011;11909;52.516;13.564;2023-03-01T06:25:05;21.10;;;11.60;;
23472;SDS011;11909;52.516;13.564;2023-03-01T06:27:34;20.10;;;12.02;;
23472;SDS011;11909;52.516;13.564;2023-03-01T06:30:03;21.40;;;12.13;;
23472;SDS011;11909;52.516;13.564;2023-03-01T06:32:32;21.13;;;11.43;;
23472;SDS011;11909;52.516;13.564;2023-03-01T06:35:00;19.75;;;12.23;;
23472;SDS011;11909;52.516;13.564;2023-03-01T06:37:28;22.48;;;13.18;;
23472;SDS011;11909;52.516;13.564;2023-03-01T06:39:56;23.63;;;12.73;;
23472;SDS011;11909;52.516;13.564;2023-03-01T06:42:24;20.83;;;12.57;;
23472;SDS011;11909;52.516;13.564;2023-03-01T06:44:51;23.38;;;13.23;;
23472;SDS011;11909;52.516;13.564;2023-03-01T06:47:19;20.63;;;12.20;;
23472;SDS011;11909;52.516;13.564;2023-03-01T06:49:48;21.90;;;13.05;;
23472;SDS011;11909;52.516;13.564;2023-03-01T06:52:16;24.73;;;12.57;;
23472;SDS011;11909;52.516;13.564;2023-03-01T06:54:44;20.65;;;12.60;;
23472;SDS011;11909;52.516;13.564;2023-03-01T06:57:11;20.17;;;12.40;;
23472;SDS011;11909;52.516;13.564;2023-03-01T06:59:39;21.52;;;13.50;;
23472;SDS011;11909;52.516;13.564;2023-03-01T07:02:09;24.40;;;14.13;;
23472;SDS011;11909;52.516;13.564;2023-03-01T07:04:37;24.40;;;13.57;;
23472;SDS011;11909;52.516;13.564;2023-03-01T07:07:06;26.20;;;13.88;;
23472;SDS011;11909;52.516;13.564;2023-03-01T07:09:34;22.00;;;12.68;;
23472;SDS011;11909;52.516;13.564;2023-03-01T07:12:02;24.83;;;15.27;;
23472;SDS011;11909;52.516;13.564;2023-03-01T07:14:29;24.05;;;13.98;;
23472;SDS011;11909;52.516;13.564;2023-03-01T07:16:57;21.75;;;14.52;;
23472;SDS011;11909;52.516;13.564;2023-03-01T07:19:25;25.95;;;15.07;;
23472;SDS011;11909;52.516;13.564;2023-03-01T07:21:53;22.63;;;13.32;;
23472;SDS011;11909;52.516;13.564;2023-03-01T07:24:23;21.38;;;13.50;;
23472;SDS011;11909;52.516;13.564;2023-03-01T07:26:50;30.70;;;14.50;;
23472;SDS011;11909;52.516;13.564;2023-03-01T07:29:19;20.27;;;12.32;;
23472;SDS011;11909;52.516;13.564;2023-03-01T07:31:47;24.88;;;12.93;;
23472;SDS011;11909;52.516;13.564;2023-03-01T07:34:15;20.80;;;13.68;;
23472;SDS011;11909;52.516;13.564;2023-03-01T07:36:42;21.92;;;13.43;;
23472;SDS011;11909;52.516;13.564;2023-03-01T07:39:11;31.50;;;13.95;;
23472;SDS011;11909;52.516;13.564;2023-03-01T07:41:40;20.98;;;12.30;;
23472;SDS011;11909;52.516;13.564;2023-03-01T07:44:08;22.90;;;12.57;;
23472;SDS011;11909;52.516;13.564;2023-03-01T07:46:36;26.25;;;15.07;;
23472;SDS011;11909;52.516;13.564;2023-03-01T07:49:04;24.48;;;13.68;;
23472;SDS011;11909;52.516;13.564;2023-03-01T07:51:32;22.50;;;14.00;;
23472;SDS011;11909;52.516;13.564;2023-03-01T07:54:00;31.08;;;14.60;;
23472;SDS011;11909;52.516;13.564;2023-03-01T07:56:27;28.52;;;15.50;;
23472;SDS011;11909;52.516;13.564;2023-03-01T07:58:58;22.02;;;14.15;;
23472;SDS011;11909;52.516;13.564;2023-03-01T08:01:26;26.20;;;15.18;;
23472;SDS011;11909;52.516;13.564;2023-03-01T08:03:54;21.83;;;14.10;;
23472;SDS011;11909;52.516;13.564;2023-03-01T08:06:22;27.25;;;14.52;;
23472;SDS011;11909;52.516;13.564;2023-03-01T08:08:49;24.27;;;14.07;;
23472;SDS011;11909;52.516;13.564;2023-03-01T08:11:17;24.60;;;13.48;;
23472;SDS011;11909;52.516;13.564;2023-03-01T08:13:46;22.40;;;12.40;;
23472;SDS011;11909;52.516;13.564;2023-03-01T08:16:20;25.08;;;13.55;;
23472;SDS011;11909;52.516;13.564;2023-03-01T08:18:48;20.97;;;13.23;;
23472;SDS011;11909;52.516;13.564;2023-03-01T08:21:16;25.27;;;13.10;;
23472;SDS011;11909;52.516;13.564;2023-03-01T08:23:44;20.58;;;12.35;;
23472;SDS011;11909;52.516;13.564;2023-03-01T08:26:13;22.58;;;12.38;;
23472;SDS011;11909;52.516;13.564;2023-03-01T08:28:42;22.15;;;12.02;;
23472;SDS011;11909;52.516;13.564;2023-03-01T08:31:13;17.48;;;10.93;;
23472;SDS011;11909;52.516;13.564;2023-03-01T08:33:44;19.05;;;11.52;;
23472;SDS011;11909;52.516;13.564;2023-03-01T08:36:16;22.92;;;11.38;;
23472;SDS011;11909;52.516;13.564;2023-03-01T08:38:45;17.95;;;10.35;;
23472;SDS011;11909;52.516;13.564;2023-03-01T08:41:13;15.07;;;10.15;;
23472;SDS011;11909;52.516;13.564;2023-03-01T08:43:41;17.65;;;10.38;;
23472;SDS011;11909;52.516;13.564;2023-03-01T08:46:09;20.58;;;10.27;;
23472;SDS011;11909;52.516;13.564;2023-03-01T08:48:37;17.33;;;9.77;;
23472;SDS011;11909;52.516;13.564;2023-03-01T08:54:53;14.45;;;7.95;;
23472;SDS011;11909;52.516;13.564;2023-03-01T08:57:21;12.80;;;7.78;;
23472;SDS011;11909;52.516;13.564;2023-03-01T08:59:49;19.77;;;9.48;;
23472;SDS011;11909;52.516;13.564;2023-03-01T09:02:17;14.57;;;8.65;;
23472;SDS011;11909;52.516;13.564;2023-03-01T09:04:45;17.27;;;7.20;;
23472;SDS011;11909;52.516;13.564;2023-03-01T09:07:13;15.50;;;7.93;;
23472;SDS011;11909;52.516;13.564;2023-03-01T09:09:40;13.38;;;7.43;;
23472;SDS011;11909;52.516;13.564;2023-03-01T09:12:09;12.65;;;7.10;;
23472;SDS011;11909;52.516;13.564;2023-03-01T09:14:37;13.93;;;6.90;;
23472;SDS011;11909;52.516;13.564;2023-03-01T09:17:07;13.47;;;7.03;;
23472;SDS011;11909;52.516;13.564;2023-03-01T09:19:35;12.85;;;7.30;;
23472;SDS011;11909;52.516;13.564;2023-03-01T09:22:02;16.30;;;7.07;;
23472;SDS011;11909;52.516;13.564;2023-03-01T09:24:30;18.27;;;7.85;;
23472;SDS011;11909;52.516;13.564;2023-03-01T09:26:58;15.80;;;6.97;;
23472;SDS011;11909;52.516;13.564;2023-03-01T09:29:28;13.43;;;6.00;;
23472;SDS011;11909;52.516;13.564;2023-03-01T09:31:56;16.90;;;5.75;;
23472;SDS011;11909;52.516;13.564;2023-03-01T09:34:23;13.18;;;6.00;;
23472;SDS011;11909;52.516;13.564;2023-03-01T09:36:51;13.25;;;6.90;;
23472;SDS011;11909;52.516;13.564;2023-03-01T09:39:19;14.73;;;6.70;;
23472;SDS011;11909;52.516;13.564;2023-03-01T09:41:49;11.27;;;5.65;;
23472;SDS011;11909;52.516;13.564;2023-03-01T09:44:25;11.68;;;5.88;;
23472;SDS011;11909;52.516;13.564;2023-03-01T09:47:00;12.10;;;4.70;;
23472;SDS011;11909;52.516;13.564;2023-03-01T09:49:28;11.27;;;5.38;;
23472;SDS011;11909;52.516;13.564;2023-03-01T09:51:59;10.82;;;5.47;;
23472;SDS011;11909;52.516;13.564;2023-03-01T09:54:36;11.98;;;5.90;;
23472;SDS011;11909;52.516;13.564;2023-03-01T09:57:06;12.55;;;5.80;;
23472;SDS011;11909;52.516;13.564;2023-03-01T09:59:49;13.05;;;6.55;;
23472;SDS011;11909;52.516;13.564;2023-03-01T10:02:31;6.75;;;4.55;;
23472;SDS011;11909;52.516;13.564;2023-03-01T10:05:11;9.20;;;4.22;;
23472;SDS011;11909;52.516;13.564;2023-03-01T10:07:52;9.38;;;3.88;;
23472;SDS011;11909;52.516;13.564;2023-03-01T10:10:32;7.72;;;4.35;;
23472;SDS011;11909;52.516;13.564;2023-03-01T10:13:04;12.55;;;5.07;;
23472;SDS011;11909;52.516;13.564;2023-03-01T10:15:43;9.35;;;4.90;;
23472;SDS011;11909;52.516;13.564;2023-03-01T10:18:16;6.38;;;4.72;;
23472;SDS011;11909;52.516;13.564;2023-03-01T10:20:48;8.82;;;4.90;;
23472;SDS011;11909;52.516;13.564;2023-03-01T10:23:22;6.53;;;4.30;;
23472;SDS011;11909;52.516;13.564;2023-03-01T10:25:54;7.60;;;4.55;;
23472;SDS011;11909;52.516;13.564;2023-03-01T10:28:36;10.95;;;6.05;;
23472;SDS011;11909;52.516;13.564;2023-03-01T10:31:13;6.22;;;3.65;;
23472;SDS011;11909;52.516;13.564;2023-03-01T10:33:46;6.68;;;3.85;;
23472;SDS011;11909;52.516;13.564;2023-03-01T10:36:17;6.53;;;3.97;;
23472;SDS011;11909;52.516;13.564;2023-03-01T10:38:48;7.18;;;3.65;;
23472;SDS011;11909;52.516;13.564;2023-03-01T10:41:20;7.72;;;4.18;;
23472;SDS011;11909;52.516;13.564;2023-03-01T10:43:51;6.03;;;3.60;;
23472;SDS011;11909;52.516;13.564;2023-03-01T10:46:26;5.97;;;3.58;;
23472;SDS011;11909;52.516;13.564;2023-03-01T10:49:14;6.07;;;3.33;;
23472;SDS011;11909;52.516;13.564;2023-03-01T10:51:44;6.40;;;3.58;;
23472;SDS011;11909;52.516;13.564;2023-03-01T10:54:17;7.07;;;3.58;;
23472;SDS011;11909;52.516;13.564;2023-03-01T10:56:47;5.32;;;3.00;;
23472;SDS011;11909;52.516;13.564;2023-03-01T10:59:22;4.32;;;3.22;;
23472;SDS011;11909;52.516;13.564;2023-03-01T11:02:02;6.07;;;2.97;;
23472;SDS011;11909;52.516;13.564;2023-03-01T11:05:00;7.28;;;3.33;;
23472;SDS011;11909;52.516;13.564;2023-03-01T11:07:29;6.60;;;3.72;;
23472;SDS011;11909;52.516;13.564;2023-03-01T11:09:57;9.70;;;3.17;;
23472;SDS011;11909;52.516;13.564;2023-03-01T11:12:25;6.10;;;3.45;;
23472;SDS011;11909;52.516;13.564;2023-03-01T11:14:55;8.38;;;3.38;;
23472;SDS011;11909;52.516;13.564;2023-03-01T11:17:27;8.32;;;3.83;;
23472;SDS011;11909;52.516;13.564;2023-03-01T11:20:06;6.38;;;2.85;;
23472;SDS011;11909;52.516;13.564;2023-03-01T11:22:50;5.50;;;3.42;;
23472;SDS011;11909;52.516;13.564;2023-03-01T11:25:21;5.82;;;3.00;;
23472;SDS011;11909;52.516;13.564;2023-03-01T11:27:52;4.97;;;3.03;;
23472;SDS011;11909;52.516;13.564;2023-03-01T11:30:21;8.18;;;3.15;;
23472;SDS011;11909;52.516;13.564;2023-03-01T11:32:57;7.03;;;3.20;;
23472;SDS011;11909;52.516;13.564;2023-03-01T11:35:32;5.57;;;3.20;;
23472;SDS011;11909;52.516;13.564;2023-03-01T11:38:08;5.18;;;2.92;;
23472;SDS011;11909;52.516;13.564;2023-03-01T11:40:49;6.45;;;2.90;;
23472;SDS011;11909;52.516;13.564;2023-03-01T11:43:26;4.80;;;2.97;;
23472;SDS011;11909;52.516;13.564;2023-03-01T11:52:09;8.55;;;3.30;;
23472;SDS011;11909;52.516;13.564;2023-03-01T11:54:48;7.78;;;3.80;;
23472;SDS011;11909;52.516;13.564;2023-03-01T11:57:34;7.55;;;3.42;;
23472;SDS011;11909;52.516;13.564;2023-03-01T12:00:14;7.95;;;3.40;;
23472;SDS011;11909;52.516;13.564;2023-03-01T12:03:13;10.73;;;5.10;;
23472;SDS011;11909;52.516;13.564;2023-03-01T12:06:01;10.10;;;4.82;;
23472;SDS011;11909;52.516;13.564;2023-03-01T12:08:45;6.32;;;3.88;;
23472;SDS011;11909;52.516;13.564;2023-03-01T12:11:20;6.63;;;3.63;;
23472;SDS011;11909;52.516;13.564;2023-03-01T12:13:59;5.53;;;3.95;;
23472;SDS011;11909;52.516;13.564;2023-03-01T12:16:57;7.57;;;3.65;;
23472;SDS011;11909;52.516;13.564;2023-03-01T12:19:39;5.88;;;4.03;;
23472;SDS011;11909;52.516;13.564;2023-03-01T12:22:27;6.93;;;4.35;;
23472;SDS011;11909;52.516;13.564;2023-03-01T12:25:02;8.43;;;3.83;;
23472;SDS011;11909;52.516;13.564;2023-03-01T12:27:50;5.82;;;3.72;;
23472;SDS011;11909;52.516;13.564;2023-03-01T12:30:35;7.28;;;3.78;;
23472;SDS011;11909;52.516;13.564;2023-03-01T12:33:17;7.05;;;3.85;;
23472;SDS011;11909;52.516;13.564;2023-03-01T12:38:55;4.90;;;3.10;;
23472;SDS011;11909;52.516;13.564;2023-03-01T12:41:45;6.88;;;3.80;;
23472;SDS011;11909;52.516;13.564;2023-03-01T12:47:04;5.07;;;3.38;;
23472;SDS011;11909;52.516;13.564;2023-03-01T12:49:40;7.43;;;3.53;;
23472;SDS011;11909;52.516;13.564;2023-03-01T12:52:13;4.43;;;3.42;;
23472;SDS011;11909;52.516;13.564;2023-03-01T12:54:46;17.60;;;7.85;;
23472;SDS011;11909;52.516;13.564;2023-03-01T12:57:20;7.15;;;3.63;;
23472;SDS011;11909;52.516;13.564;2023-03-01T12:59:59;7.68;;;3.60;;
23472;SDS011;11909;52.516;13.564;2023-03-01T13:02:37;6.53;;;3.03;;
23472;SDS011;11909;52.516;13.564;2023-03-01T13:05:18;4.55;;;3.50;;
23472;SDS011;11909;52.516;13.564;2023-03-01T13:07:53;5.05;;;3.40;;
23472;SDS011;11909;52.516;13.564;2023-03-01T13:10:26;4.53;;;2.85;;
23472;SDS011;11909;52.516;13.564;2023-03-01T13:13:08;5.35;;;2.90;;
23472;SDS011;11909;52.516;13.564;2023-03-01T13:15:40;40.72;;;18.52;;
23472;SDS011;11909;52.516;13.564;2023-03-01T13:20:57;4.30;;;2.83;;
23472;SDS011;11909;52.516;13.564;2023-03-01T13:23:28;5.47;;;3.00;;
23472;SDS011;11909;52.516;13.564;2023-03-01T13:26:06;4.22;;;3.35;;
23472;SDS011;11909;52.516;13.564;2023-03-01T13:28:42;5.32;;;3.38;;
23472;SDS011;11909;52.516;13.564;2023-03-01T13:34:39;4.90;;;3.00;;
23472;SDS011;11909;52.516;13.564;2023-03-01T13:37:10;6.05;;;2.95;;
23472;SDS011;11909;52.516;13.564;2023-03-01T13:39:45;4.13;;;2.88;;
23472;SDS011;11909;52.516;13.564;2023-03-01T13:42:29;5.53;;;3.28;;
23472;SDS011;11909;52.516;13.564;2023-03-01T13:45:01;4.70;;;3.17;;
23472;SDS011;11909;52.516;13.564;2023-03-01T13:50:00;4.32;;;2.85;;
23472;SDS011;11909;52.516;13.564;2023-03-01T13:52:34;4.32;;;2.92;;
23472;SDS011;11909;52.516;13.564;2023-03-01T13:55:06;4.10;;;2.55;;
23472;SDS011;11909;52.516;13.564;2023-03-01T13:57:44;4.35;;;2.90;;
23472;SDS011;11909;52.516;13.564;2023-03-01T14:00:29;6.93;;;3.03;;
23472;SDS011;11909;52.516;13.564;2023-03-01T14:03:00;4.13;;;2.67;;
23472;SDS011;11909;52.516;13.564;2023-03-01T14:05:32;4.75;;;2.80;;
23472;SDS011;11909;52.516;13.564;2023-03-01T14:08:02;5.90;;;3.57;;
23472;SDS011;11909;52.516;13.564;2023-03-01T14:10:31;7.68;;;2.80;;
23472;SDS011;11909;52.516;13.564;2023-03-01T14:13:10;5.35;;;2.92;;
23472;SDS011;11909;52.516;13.564;2023-03-01T14:15:58;5.65;;;2.95;;
23472;SDS011;11909;52.516;13.564;2023-03-01T14:18:38;6.38;;;2.85;;
23472;SDS011;11909;52.516;13.564;2023-03-01T14:21:14;4.55;;;2.70;;
23472;SDS011;11909;52.516;13.564;2023-03-01T14:23:43;5.35;;;2.78;;
23472;SDS011;11909;52.516;13.564;2023-03-01T14:26:12;4.67;;;2.80;;
23472;SDS011;11909;52.516;13.564;2023-03-01T14:28:41;4.35;;;2.90;;
23472;SDS011;11909;52.516;13.564;2023-03-01T14:31:29;4.43;;;2.55;;
23472;SDS011;11909;52.516;13.564;2023-03-01T14:34:16;5.60;;;2.47;;
23472;SDS011;11909;52.516;13.564;2023-03-01T14:36:47;4.50;;;2.70;;
23472;SDS011;11909;52.516;13.564;2023-03-01T14:39:18;3.05;;;2.17;;
23472;SDS011;11909;52.516;13.564;2023-03-01T14:41:47;3.90;;;2.47;;
23472;SDS011;11909;52.516;13.564;2023-03-01T14:44:16;3.63;;;2.40;;
23472;SDS011;11909;52.516;13.564;2023-03-01T14:46:52;3.88;;;2.40;;
23472;SDS011;11909;52.516;13.564;2023-03-01T14:49:23;3.58;;;2.13;;
23472;SDS011;11909;52.516;13.564;2023-03-01T14:51:53;2.38;;;2.17;;
23472;SDS011;11909;52.516;13.564;2023-03-01T14:54:24;3.00;;;2.08;;
23472;SDS011;11909;52.516;13.564;2023-03-01T14:56:57;2.40;;;1.92;;
23472;SDS011;11909;52.516;13.564;2023-03-01T14:59:26;2.88;;;1.90;;
23472;SDS011;11909;52.516;13.564;2023-03-01T15:01:56;4.20;;;1.75;;
23472;SDS011;11909;52.516;13.564;2023-03-01T15:04:26;2.40;;;1.70;;
23472;SDS011;11909;52.516;13.564;2023-03-01T15:06:55;2.47;;;1.80;;
23472;SDS011;11909;52.516;13.564;2023-03-01T15:09:31;4.65;;;2.00;;
23472;SDS011;11909;52.516;13.564;2023-03-01T15:15:08;2.28;;;1.95;;
23472;SDS011;11909;52.516;13.564;2023-03-01T15:17:51;5.80;;;1.98;;
23472;SDS011;11909;52.516;13.564;2023-03-01T15:20:22;3.00;;;1.92;;
23472;SDS011;11909;52.516;13.564;2023-03-01T15:22:53;4.47;;;1.80;;
23472;SDS011;11909;52.516;13.564;2023-03-01T15:25:23;5.57;;;2.15;;
23472;SDS011;11909;52.516;13.564;2023-03-01T15:27:53;3.88;;;2.03;;